createdAt,value
2023-01-17T00:01:34.031Z,98824.28
2023-01-17T00:04:20.101Z,98826.56
2023-01-17T00:07:07.156Z,98829.03
2023-01-17T00:09:52.442Z,98823.22
2023-01-17T00:12:21.058Z,98818.16
2023-01-17T00:14:49.556Z,98815.97
2023-01-17T00:17:17.591Z,98804.34
2023-01-17T00:20:02.831Z,98806.31
2023-01-17T00:22:50.290Z,98807.72
2023-01-17T00:25:37.141Z,98800.00
2023-01-17T00:28:05.030Z,98804.75
2023-01-17T00:30:32.201Z,98798.75
2023-01-17T00:32:59.648Z,98785.75
2023-01-17T00:35:28.867Z,98807.19
2023-01-17T00:38:05.212Z,98796.31
2023-01-17T00:40:32.389Z,98798.94
2023-01-17T00:43:17.591Z,98788.41
2023-01-17T00:46:03.514Z,98788.31
2023-01-17T00:48:51.072Z,98808.09
2023-01-17T00:51:37.532Z,98805.78
2023-01-17T00:54:24.495Z,98778.53
2023-01-17T00:57:10.303Z,98793.78
2023-01-17T00:59:55.728Z,98783.97
2023-01-17T01:02:41.753Z,98780.75
2023-01-17T01:05:27.390Z,98770.16
2023-01-17T01:08:12.885Z,98755.56
2023-01-17T01:11:00.000Z,98759.06
2023-01-17T01:13:47.917Z,98725.09
2023-01-17T01:16:34.237Z,98758.91
2023-01-17T01:19:20.309Z,98750.66
2023-01-17T01:22:06.081Z,98760.84
2023-01-17T01:24:51.279Z,98748.03
2023-01-17T01:27:38.325Z,98737.63
2023-01-17T01:30:24.807Z,98730.44
2023-01-17T01:33:10.317Z,98742.91
2023-01-17T01:35:38.341Z,98761.13
2023-01-17T01:38:06.358Z,98741.38
2023-01-17T01:40:34.362Z,98728.72
2023-01-17T01:43:05.989Z,98727.97
2023-01-17T01:45:34.242Z,98724.69
2023-01-17T01:48:05.553Z,98724.75
2023-01-17T01:50:35.635Z,98724.34
2023-01-17T01:53:07.222Z,98730.06
2023-01-17T01:55:38.982Z,98718.84
2023-01-17T01:58:14.389Z,98705.22
2023-01-17T02:00:43.207Z,98732.66
2023-01-17T02:03:14.962Z,98742.75
2023-01-17T02:05:44.625Z,98736.13
2023-01-17T02:08:16.619Z,98734.84
2023-01-17T02:10:45.139Z,98738.84
2023-01-17T02:13:17.525Z,98740.44
2023-01-17T02:15:56.117Z,98736.06
2023-01-17T02:18:34.805Z,98744.75
2023-01-17T02:21:24.558Z,98734.94
2023-01-17T02:24:17.042Z,98731.69
2023-01-17T02:26:55.127Z,98723.84
2023-01-17T02:29:57.615Z,98737.97
2023-01-17T02:32:39.210Z,98741.06
2023-01-17T02:35:14.922Z,98713.00
2023-01-17T02:37:51.838Z,98693.63
2023-01-17T02:40:26.329Z,98696.38
2023-01-17T02:42:59.324Z,98706.72
2023-01-17T02:45:27.408Z,98718.53
2023-01-17T02:47:56.733Z,98698.88
2023-01-17T02:50:28.554Z,98708.59
2023-01-17T02:53:15.970Z,98687.66
2023-01-17T02:55:55.332Z,98670.81
2023-01-17T02:58:41.666Z,98701.97
2023-01-17T03:01:19.823Z,98704.56
2023-01-17T03:03:54.465Z,98708.50
2023-01-17T03:06:28.169Z,98699.88
2023-01-17T03:08:56.160Z,98700.31
2023-01-17T03:11:24.331Z,98673.50
2023-01-17T03:13:56.850Z,98668.00
2023-01-17T03:16:27.076Z,98683.69
2023-01-17T03:18:56.394Z,98690.34
2023-01-17T03:21:25.193Z,98674.75
2023-01-17T03:23:53.717Z,98656.53
2023-01-17T03:26:21.732Z,98654.28
2023-01-17T03:28:49.705Z,98640.25
2023-01-17T03:31:18.307Z,98646.53
2023-01-17T03:33:46.490Z,98658.53
2023-01-17T03:36:15.929Z,98651.59
2023-01-17T03:38:43.821Z,98646.81
2023-01-17T03:41:11.780Z,98663.50
2023-01-17T03:43:39.810Z,98650.25
2023-01-17T03:46:09.617Z,98660.75
2023-01-17T03:48:37.605Z,98663.50
2023-01-17T03:51:05.674Z,98657.72
2023-01-17T03:53:34.995Z,98647.19
2023-01-17T03:56:02.967Z,98629.88
2023-01-17T03:58:30.971Z,98626.31
2023-01-17T04:00:58.942Z,98636.00
2023-01-17T04:03:27.136Z,98618.22
2023-01-17T04:05:55.037Z,98667.88
2023-01-17T04:08:23.204Z,98655.38
2023-01-17T04:10:52.511Z,98639.84
2023-01-17T04:13:20.445Z,98653.44
2023-01-17T04:15:51.047Z,98623.84
2023-01-17T04:18:21.103Z,98621.06
2023-01-17T04:20:49.211Z,98628.19
2023-01-17T04:23:17.164Z,98625.81
2023-01-17T04:25:45.124Z,98596.53
2023-01-17T04:28:14.628Z,98601.41
2023-01-17T04:30:42.634Z,98620.22
2023-01-17T04:33:10.580Z,98631.59
2023-01-17T04:35:38.623Z,98626.84
2023-01-17T04:38:06.647Z,98648.16
2023-01-17T04:40:34.698Z,98615.88
2023-01-17T04:43:02.636Z,98608.13
2023-01-17T04:45:31.990Z,98590.31
2023-01-17T04:48:05.098Z,98597.78
2023-01-17T04:50:33.773Z,98574.50
2023-01-17T04:53:02.028Z,98577.59
2023-01-17T04:55:29.932Z,98597.56
2023-01-17T04:57:58.001Z,98622.50
2023-01-17T05:00:26.144Z,98629.75
2023-01-17T05:02:55.689Z,98634.72
2023-01-17T05:05:23.892Z,98614.03
2023-01-17T05:07:55.752Z,98593.31
2023-01-17T05:10:24.069Z,98623.94
2023-01-17T05:12:56.052Z,98627.56
2023-01-17T05:15:24.303Z,98642.38
2023-01-17T05:17:52.890Z,98647.94
2023-01-17T05:20:23.191Z,98635.31
2023-01-17T05:22:55.591Z,98638.22
2023-01-17T05:25:24.272Z,98636.97
2023-01-17T05:27:52.342Z,98644.72
2023-01-17T05:30:21.222Z,98644.50
2023-01-17T05:32:50.528Z,98657.22
2023-01-17T05:35:19.761Z,98655.63
2023-01-17T05:37:51.122Z,98662.44
2023-01-17T05:40:19.918Z,98651.47
2023-01-17T05:42:48.245Z,98626.22
2023-01-17T05:45:17.769Z,98675.97
2023-01-17T05:47:46.653Z,98682.88
2023-01-17T05:50:16.367Z,98664.03
2023-01-17T05:52:52.568Z,98681.25
2023-01-17T05:55:21.691Z,98651.56
2023-01-17T05:57:50.309Z,98659.38
2023-01-17T06:00:20.026Z,98660.63
2023-01-17T06:02:48.919Z,98681.13
2023-01-17T06:05:17.883Z,98692.44
2023-01-17T06:07:46.647Z,98659.00
2023-01-17T06:10:17.040Z,98663.66
2023-01-17T06:12:46.113Z,98677.25
2023-01-17T06:15:16.549Z,98659.53
2023-01-17T06:17:44.860Z,98694.81
2023-01-17T06:20:13.955Z,98707.75
2023-01-17T06:22:42.053Z,98692.06
2023-01-17T06:25:10.422Z,98711.25
2023-01-17T06:27:39.814Z,98709.22
2023-01-17T06:30:08.991Z,98704.06
2023-01-17T06:32:36.891Z,98711.25
2023-01-17T06:35:05.153Z,98700.09
2023-01-17T06:37:33.050Z,98690.19
2023-01-17T06:40:00.998Z,98698.47
2023-01-17T06:42:29.161Z,98672.19
2023-01-17T06:44:58.373Z,98677.22
2023-01-17T06:47:26.292Z,98670.91
2023-01-17T06:49:54.206Z,98688.09
2023-01-17T06:52:22.064Z,98674.22
2023-01-17T06:54:50.178Z,98651.56
2023-01-17T06:57:18.060Z,98649.81
2023-01-17T06:59:46.400Z,98632.22
2023-01-17T07:02:15.693Z,98662.25
2023-01-17T07:04:43.628Z,98661.06
2023-01-17T07:07:11.591Z,98638.81
2023-01-17T07:09:39.745Z,98639.44
2023-01-17T07:12:08.178Z,98647.56
2023-01-17T07:14:36.114Z,98658.13
2023-01-17T07:17:05.624Z,98632.81
2023-01-17T07:19:35.100Z,98630.00
2023-01-17T07:22:03.024Z,98636.72
2023-01-17T07:24:30.982Z,98655.53
2023-01-17T07:26:58.973Z,98631.66
2023-01-17T07:29:26.897Z,98678.84
2023-01-17T07:31:54.895Z,98664.28
2023-01-17T07:34:22.831Z,98661.41
2023-01-17T07:36:54.459Z,98648.38
2023-01-17T07:39:22.619Z,98643.50
2023-01-17T07:41:50.618Z,98657.78
2023-01-17T07:44:18.627Z,98642.50
2023-01-17T07:46:46.662Z,98617.41
2023-01-17T07:49:15.112Z,98631.31
2023-01-17T07:51:43.023Z,98681.94
2023-01-17T07:54:14.013Z,98671.41
2023-01-17T07:56:45.546Z,98675.88
2023-01-17T07:59:13.522Z,98663.84
2023-01-17T08:01:41.614Z,98546.78
2023-01-17T08:04:10.492Z,98637.63
2023-01-17T08:06:40.717Z,98640.94
2023-01-17T08:09:08.630Z,98640.22
2023-01-17T08:11:37.960Z,98648.28
2023-01-17T08:14:06.110Z,98663.97
2023-01-17T08:16:34.034Z,98672.03
2023-01-17T08:19:02.080Z,98673.16
2023-01-17T08:21:29.977Z,98682.75
2023-01-17T08:23:57.913Z,98691.25
2023-01-17T08:26:25.763Z,98679.53
2023-01-17T08:29:00.159Z,98677.09
2023-01-17T08:31:28.338Z,98665.28
2023-01-17T08:33:57.572Z,98648.09
2023-01-17T08:36:27.647Z,98651.00
2023-01-17T08:38:56.153Z,98641.09
2023-01-17T08:41:27.485Z,98635.91
2023-01-17T08:43:56.820Z,98644.66
2023-01-17T08:46:25.156Z,98634.94
2023-01-17T08:48:55.802Z,98648.88
2023-01-17T08:51:26.444Z,98639.56
2023-01-17T08:53:54.835Z,98611.84
2023-01-17T08:56:23.775Z,98656.81
2023-01-17T08:58:51.800Z,98637.78
2023-01-17T09:01:21.166Z,98641.34
2023-01-17T09:03:51.439Z,98653.13
2023-01-17T09:06:19.413Z,98638.28
2023-01-17T09:08:49.651Z,98622.00
2023-01-17T09:11:18.703Z,98653.28
2023-01-17T09:13:46.653Z,98662.81
2023-01-17T09:16:14.670Z,98661.16
2023-01-17T09:18:44.055Z,98687.38
2023-01-17T09:21:13.259Z,98690.91
2023-01-17T09:23:41.903Z,98690.38
2023-01-17T09:26:20.249Z,98689.34
2023-01-17T09:28:48.536Z,98672.13
2023-01-17T09:31:17.653Z,98686.59
2023-01-17T09:33:47.528Z,98690.31
2023-01-17T09:36:15.646Z,98685.19
2023-01-17T09:38:43.956Z,98674.09
2023-01-17T09:41:27.678Z,98683.31
2023-01-17T09:44:01.217Z,98677.94
2023-01-17T09:46:33.729Z,98674.50
2023-01-17T09:49:09.375Z,98669.44
2023-01-17T09:51:38.199Z,98641.44
2023-01-17T09:54:06.605Z,98619.88
2023-01-17T09:56:42.035Z,98630.00
2023-01-17T09:59:32.299Z,98632.84
2023-01-17T10:02:15.053Z,98604.28
2023-01-17T10:04:59.967Z,98622.81
2023-01-17T10:07:41.892Z,98596.44
2023-01-17T10:10:22.890Z,98611.72
2023-01-17T10:12:59.356Z,98631.84
2023-01-17T10:15:41.320Z,98605.47
2023-01-17T10:18:30.502Z,98594.38
2023-01-17T10:21:07.266Z,98593.34
2023-01-17T10:24:04.128Z,98606.84
2023-01-17T10:26:34.995Z,98621.25
2023-01-17T10:29:06.190Z,98594.75
2023-01-17T10:31:41.643Z,98602.88
2023-01-17T10:34:18.243Z,98614.28
2023-01-17T10:36:51.312Z,98602.97
2023-01-17T10:39:22.508Z,98593.38
2023-01-17T10:41:56.378Z,98604.53
2023-01-17T10:44:30.960Z,98600.50
2023-01-17T10:47:13.623Z,98588.81
2023-01-17T10:49:46.378Z,98590.56
2023-01-17T10:52:22.071Z,98602.88
2023-01-17T10:55:04.112Z,98600.84
2023-01-17T10:57:39.444Z,98607.13
2023-01-17T11:00:27.381Z,98589.06
2023-01-17T11:02:55.861Z,98603.28
2023-01-17T11:05:26.660Z,98584.72
2023-01-17T11:08:06.534Z,98595.38
2023-01-17T11:10:40.954Z,98580.28
2023-01-17T11:13:23.635Z,98585.97
2023-01-17T11:15:54.027Z,98584.22
2023-01-17T11:18:22.912Z,98562.25
2023-01-17T11:20:50.964Z,98567.88
2023-01-17T11:23:23.603Z,98546.19
2023-01-17T11:25:53.463Z,98547.88
2023-01-17T11:28:26.278Z,98533.34
2023-01-17T11:30:56.616Z,98546.84
2023-01-17T11:33:47.420Z,98534.22
2023-01-17T11:36:18.960Z,98550.28
2023-01-17T11:39:06.998Z,98431.97
2023-01-17T11:41:37.656Z,98545.59
2023-01-17T11:44:23.270Z,98523.22
2023-01-17T11:47:09.850Z,98550.38
2023-01-17T11:49:37.925Z,98561.09
2023-01-17T11:52:10.422Z,98531.84
2023-01-17T11:54:42.557Z,98556.41
2023-01-17T11:57:21.767Z,98547.50
2023-01-17T11:59:50.232Z,98541.09
2023-01-17T12:02:43.743Z,98503.19
2023-01-17T12:05:44.689Z,98541.34
2023-01-17T12:08:23.589Z,98527.66
2023-01-17T12:11:04.017Z,98524.09
2023-01-17T12:14:02.087Z,98517.50
2023-01-17T12:16:57.328Z,98501.69
2023-01-17T12:19:53.603Z,98489.75
2023-01-17T12:22:37.766Z,98505.97
2023-01-17T12:25:24.434Z,98509.84
2023-01-17T12:28:11.468Z,98507.06
2023-01-17T12:30:52.486Z,98514.88
2023-01-17T12:33:27.926Z,98515.31
2023-01-17T12:36:00.156Z,98507.63
2023-01-17T12:38:35.806Z,98508.72
2023-01-17T12:41:11.314Z,98467.72
2023-01-17T12:43:42.660Z,98483.06
2023-01-17T12:46:20.856Z,98489.25
2023-01-17T12:48:55.509Z,98492.81
2023-01-17T12:51:29.499Z,98498.44
2023-01-17T12:54:03.031Z,98462.22
2023-01-17T12:56:35.072Z,98470.56
2023-01-17T12:59:15.278Z,98470.75
2023-01-17T13:01:57.789Z,98477.72
2023-01-17T13:04:29.600Z,98485.69
2023-01-17T13:07:07.675Z,98472.53
2023-01-17T13:09:43.232Z,98463.47
2023-01-17T13:12:15.216Z,98421.75
2023-01-17T13:14:47.465Z,98460.13
2023-01-17T13:17:27.795Z,98469.09
2023-01-17T13:20:02.076Z,98475.38
2023-01-17T13:22:31.965Z,98472.00
2023-01-17T13:25:13.819Z,98481.84
2023-01-17T13:28:12.813Z,98477.28
2023-01-17T13:31:11.392Z,98484.97
2023-01-17T13:33:58.985Z,98485.94
2023-01-17T13:36:50.602Z,98480.91
2023-01-17T13:39:55.791Z,98486.88
2023-01-17T13:42:30.129Z,98500.59
2023-01-17T13:44:59.041Z,98478.66
2023-01-17T13:47:41.597Z,98479.22
2023-01-17T13:50:48.023Z,98467.66
2023-01-17T13:53:56.212Z,98464.06
2023-01-17T13:56:35.822Z,98485.03
2023-01-17T13:59:28.250Z,98464.16
2023-01-17T14:01:57.114Z,98464.78
2023-01-17T14:04:47.081Z,98475.50
2023-01-17T14:07:26.635Z,98457.13
2023-01-17T14:09:54.927Z,98463.50
2023-01-17T14:12:36.599Z,98463.00
2023-01-17T14:15:20.517Z,98480.81
2023-01-17T14:17:55.708Z,98489.56
2023-01-17T14:20:54.127Z,98485.84
2023-01-17T14:23:54.558Z,98488.03
2023-01-17T14:26:51.815Z,98486.53
2023-01-17T14:29:47.082Z,98483.41
2023-01-17T14:32:17.830Z,98486.13
2023-01-17T14:34:47.974Z,98472.28
2023-01-17T14:37:27.294Z,98468.88
2023-01-17T14:39:55.248Z,98469.47
2023-01-17T14:42:26.461Z,98459.72
2023-01-17T14:45:00.272Z,98453.16
2023-01-17T14:47:32.287Z,98442.03
2023-01-17T14:50:21.705Z,98443.72
2023-01-17T14:53:08.379Z,98453.97
2023-01-17T14:55:36.679Z,98443.28
2023-01-17T14:58:04.728Z,98443.22
2023-01-17T15:00:35.033Z,98445.84
2023-01-17T15:03:04.177Z,98469.00
2023-01-17T15:05:33.721Z,98465.81
2023-01-17T15:08:06.210Z,98440.19
2023-01-17T15:10:35.272Z,98449.50
2023-01-17T15:13:10.121Z,98437.22
2023-01-17T15:15:40.198Z,98451.91
2023-01-17T15:18:29.547Z,98446.47
2023-01-17T15:21:02.152Z,98440.13
2023-01-17T15:23:34.680Z,98463.97
2023-01-17T15:26:04.403Z,98483.72
2023-01-17T15:28:33.852Z,98457.81
2023-01-17T15:31:05.012Z,98459.78
2023-01-17T15:33:34.148Z,98472.09
2023-01-17T15:36:04.298Z,98504.91
2023-01-17T15:38:38.996Z,98471.13
2023-01-17T15:41:14.682Z,98474.97
2023-01-17T15:43:46.046Z,98465.78
2023-01-17T15:46:26.884Z,98478.94
2023-01-17T15:48:54.958Z,98475.94
2023-01-17T15:51:34.564Z,98483.19
2023-01-17T15:54:42.155Z,98505.16
2023-01-17T15:57:20.849Z,98492.38
2023-01-17T15:59:53.882Z,98491.44
2023-01-17T16:02:55.164Z,98507.38
2023-01-17T16:05:38.789Z,98493.66
2023-01-17T16:08:32.407Z,98516.00
2023-01-17T16:11:03.150Z,98492.56
2023-01-17T16:13:33.318Z,98493.09
2023-01-17T16:16:19.133Z,98486.78
2023-01-17T16:18:48.740Z,98515.72
2023-01-17T16:21:27.681Z,98514.22
2023-01-17T16:23:56.437Z,98486.78
2023-01-17T16:26:25.912Z,98491.16
2023-01-17T16:28:53.896Z,98507.91
2023-01-17T16:31:21.977Z,98488.16
2023-01-17T16:33:51.125Z,98496.63
2023-01-17T16:36:21.214Z,98479.09
2023-01-17T16:38:51.557Z,98485.97
2023-01-17T16:41:20.538Z,98491.56
2023-01-17T16:43:58.802Z,98499.97
2023-01-17T16:46:27.147Z,98489.13
2023-01-17T16:48:55.275Z,98488.97
2023-01-17T16:51:23.350Z,98483.75
2023-01-17T16:53:51.381Z,98493.63
2023-01-17T16:56:20.391Z,98487.06
2023-01-17T16:58:48.457Z,98481.44
2023-01-17T17:01:21.266Z,98488.84
2023-01-17T17:03:49.791Z,98508.88
2023-01-17T17:06:18.205Z,98477.28
2023-01-17T17:08:46.152Z,98487.88
2023-01-17T17:11:16.552Z,98463.75
2023-01-17T17:13:46.032Z,98471.84
2023-01-17T17:16:20.148Z,98464.97
2023-01-17T17:18:55.262Z,98450.16
2023-01-17T17:21:23.432Z,98452.22
2023-01-17T17:23:56.737Z,98467.03
2023-01-17T17:26:26.714Z,98465.09
2023-01-17T17:28:55.204Z,98450.84
2023-01-17T17:31:24.966Z,98444.81
2023-01-17T17:33:53.020Z,98434.91
2023-01-17T17:36:21.095Z,98435.72
2023-01-17T17:38:51.876Z,98416.00
2023-01-17T17:41:21.938Z,98432.56
2023-01-17T17:43:51.332Z,98440.94
2023-01-17T17:46:20.715Z,98435.06
2023-01-17T17:48:50.356Z,98439.31
2023-01-17T17:51:26.419Z,98436.72
2023-01-17T17:53:55.347Z,98436.03
2023-01-17T17:56:23.670Z,98418.75
2023-01-17T17:58:52.012Z,98440.97
2023-01-17T18:01:22.849Z,98426.41
2023-01-17T18:03:52.704Z,98415.16
2023-01-17T18:06:21.591Z,98427.50
2023-01-17T18:08:52.032Z,98444.63
2023-01-17T18:11:22.669Z,98413.00
2023-01-17T18:13:51.841Z,98391.50
2023-01-17T18:16:21.546Z,98390.50
2023-01-17T18:18:52.740Z,98401.78
2023-01-17T18:21:23.933Z,98412.88
2023-01-17T18:23:54.697Z,98417.09
2023-01-17T18:26:25.545Z,98403.94
2023-01-17T18:28:54.282Z,98411.06
2023-01-17T18:31:24.149Z,98403.78
2023-01-17T18:33:54.162Z,98391.56
2023-01-17T18:36:23.376Z,98400.19
2023-01-17T18:38:53.140Z,98393.91
2023-01-17T18:41:22.999Z,98385.84
2023-01-17T18:43:51.319Z,98368.16
2023-01-17T18:46:21.278Z,98349.78
2023-01-17T18:48:49.639Z,98381.19
2023-01-17T18:51:20.585Z,98355.84
2023-01-17T18:53:49.746Z,98346.00
2023-01-17T18:56:20.282Z,98358.31
2023-01-17T18:58:49.998Z,98343.91
2023-01-17T19:01:20.368Z,98348.56
2023-01-17T19:03:50.039Z,98340.91
2023-01-17T19:06:22.691Z,98328.69
2023-01-17T19:08:51.900Z,98333.66
2023-01-17T19:11:20.901Z,98325.00
2023-01-17T19:13:50.329Z,98333.34
2023-01-17T19:16:21.056Z,98340.47
2023-01-17T19:18:49.008Z,98328.28
2023-01-17T19:21:20.371Z,98308.56
2023-01-17T19:23:48.774Z,98359.81
2023-01-17T19:26:17.630Z,98358.03
2023-01-17T19:28:47.115Z,98347.19
2023-01-17T19:31:17.186Z,98369.69
2023-01-17T19:33:46.879Z,98337.75
2023-01-17T19:36:18.517Z,98345.28
2023-01-17T19:39:02.968Z,98362.41
2023-01-17T19:41:32.075Z,98343.66
2023-01-17T19:44:02.306Z,98351.59
2023-01-17T19:46:30.563Z,98334.31
2023-01-17T19:48:59.597Z,98347.47
2023-01-17T19:51:28.428Z,98329.63
2023-01-17T19:53:59.185Z,98318.56
2023-01-17T19:56:27.829Z,98308.03
2023-01-17T19:59:00.635Z,98355.44
2023-01-17T20:01:30.630Z,98346.38
2023-01-17T20:03:59.431Z,98315.13
2023-01-17T20:06:29.302Z,98331.97
2023-01-17T20:08:59.164Z,98313.97
2023-01-17T20:11:28.043Z,98313.47
2023-01-17T20:13:58.046Z,98333.47
2023-01-17T20:16:28.191Z,98307.28
2023-01-17T20:18:56.602Z,98324.69
2023-01-17T20:21:26.636Z,98326.88
2023-01-17T20:23:56.031Z,98335.59
2023-01-17T20:26:31.143Z,98336.84
2023-01-17T20:28:59.140Z,98359.72
2023-01-17T20:31:27.454Z,98347.53
2023-01-17T20:33:57.188Z,98331.44
2023-01-17T20:36:26.600Z,98335.06
2023-01-17T20:38:54.682Z,98332.00
2023-01-17T20:41:26.111Z,98311.19
2023-01-17T20:43:55.604Z,98332.59
2023-01-17T20:46:25.710Z,98311.69
2023-01-17T20:48:55.441Z,98349.97
2023-01-17T20:51:26.406Z,98338.78
2023-01-17T20:53:56.071Z,98331.19
2023-01-17T20:56:26.775Z,98327.97
2023-01-17T20:58:56.109Z,98322.03
2023-01-17T21:01:24.621Z,98344.78
2023-01-17T21:03:54.048Z,98326.50
2023-01-17T21:06:23.448Z,98307.69
2023-01-17T21:08:52.671Z,98300.84
2023-01-17T21:11:22.048Z,98312.59
2023-01-17T21:13:51.830Z,98304.91
2023-01-17T21:16:22.987Z,98318.09
2023-01-17T21:18:52.814Z,98340.22
2023-01-17T21:21:22.993Z,98349.28
2023-01-17T21:23:52.377Z,98334.56
2023-01-17T21:26:21.710Z,98325.56
2023-01-17T21:28:51.688Z,98317.41
2023-01-17T21:31:23.997Z,98324.84
2023-01-17T21:33:54.047Z,98321.94
2023-01-17T21:36:23.894Z,98259.38
2023-01-17T21:38:53.064Z,98335.16
2023-01-17T21:41:21.547Z,98336.56
2023-01-17T21:43:54.257Z,98337.09
2023-01-17T21:46:22.267Z,98350.91
2023-01-17T21:48:50.392Z,98338.75
2023-01-17T21:51:19.526Z,98330.72
2023-01-17T21:53:47.566Z,98339.88
2023-01-17T21:56:33.468Z,98322.22
2023-01-17T21:59:03.045Z,98314.16
2023-01-17T22:01:34.302Z,98306.75
2023-01-17T22:04:04.732Z,98302.13
2023-01-17T22:06:35.433Z,98305.69
2023-01-17T22:09:04.793Z,98302.78
2023-01-17T22:11:32.967Z,98305.59
2023-01-17T22:14:04.900Z,98286.38
2023-01-17T22:16:33.270Z,98288.16
2023-01-17T22:19:01.211Z,98306.16
2023-01-17T22:21:29.746Z,98286.38
2023-01-17T22:23:59.538Z,98290.44
2023-01-17T22:26:29.640Z,98295.16
2023-01-17T22:29:02.356Z,98302.69
2023-01-17T22:31:30.522Z,98291.19
2023-01-17T22:34:00.655Z,98283.53
2023-01-17T22:36:28.893Z,98275.75
2023-01-17T22:38:57.166Z,98286.47
2023-01-17T22:41:27.982Z,98282.00
2023-01-17T22:43:58.650Z,98272.28
2023-01-17T22:46:30.225Z,98281.84
2023-01-17T22:48:58.816Z,98291.44
2023-01-17T22:51:28.789Z,98275.84
2023-01-17T22:53:59.095Z,98261.34
2023-01-17T22:56:29.749Z,98261.44
2023-01-17T22:58:58.467Z,98254.09
2023-01-17T23:01:29.234Z,98244.81
2023-01-17T23:03:58.964Z,98267.56
2023-01-17T23:06:28.803Z,98261.34
2023-01-17T23:08:59.309Z,98253.25
2023-01-17T23:11:46.321Z,98254.25
2023-01-17T23:14:18.026Z,98262.00
2023-01-17T23:17:06.776Z,98263.25
2023-01-17T23:19:36.858Z,98275.84
2023-01-17T23:22:20.258Z,98252.13
2023-01-17T23:24:51.561Z,98263.69
2023-01-17T23:27:39.519Z,98259.53
2023-01-17T23:30:11.525Z,98248.56
2023-01-17T23:32:41.666Z,98248.03
2023-01-17T23:35:09.947Z,98253.13
2023-01-17T23:37:55.445Z,98256.28
2023-01-17T23:40:23.935Z,98254.28
2023-01-17T23:43:09.597Z,98252.84
2023-01-17T23:45:38.773Z,98248.94
2023-01-17T23:48:10.805Z,98242.63
2023-01-17T23:50:39.677Z,98253.44
2023-01-17T23:53:08.062Z,98256.22
2023-01-17T23:55:37.419Z,98256.34
2023-01-17T23:58:06.025Z,98267.34
